LGIR

Iraklion/Nikos Kazantzakis

Airport
ICAO code
LGIR
IATA Code
HER
Summary
ICAO Region
EUR
ICAO Territory
Location

Nea Alikarnassos, Crete

Serving
Heraklion
Elevation
115 ft
Coordinates
35° 20' 23" N , 25° 10' 49" E
KCC
Metar
LGIR 240250Z VRB02KT CAVOK 27/23 Q1007 NOSIG

Description

International airport serving Iraklion on the island of Crete.

Climatology

Mediterranean climate (Köppen climate classification Csa) - Hot, dry summer and a mild wet winter.

Runways

Designator Length Width Surface Rops
18/36 780 40 ASP No/No
12/30 1566 50 ASP Yes/Yes
9/27 2682 45 ASP Yes/Yes

Airport map

Aerial View

SKYbrary Partners:

Safety knowledge contributed by: